sensor_id;sensor_type;location;lat;lon;timestamp;P1;durP1;ratioP1;P2;durP2;ratioP2
60726;SDS011;46577;49.004;12.120;2023-05-16T00:00:17;17.40;;;13.40;;
60726;SDS011;46577;49.004;12.120;2023-05-16T00:02:44;16.00;;;13.73;;
60726;SDS011;46577;49.004;12.120;2023-05-16T00:05:09;18.97;;;14.33;;
60726;SDS011;46577;49.004;12.120;2023-05-16T00:07:38;17.30;;;13.70;;
60726;SDS011;46577;49.004;12.120;2023-05-16T00:10:06;21.03;;;14.80;;
60726;SDS011;46577;49.004;12.120;2023-05-16T00:12:32;19.10;;;13.90;;
60726;SDS011;46577;49.004;12.120;2023-05-16T00:15:00;21.80;;;16.57;;
60726;SDS011;46577;49.004;12.120;2023-05-16T00:17:26;20.40;;;14.53;;
60726;SDS011;46577;49.004;12.120;2023-05-16T00:19:53;19.37;;;14.43;;
60726;SDS011;46577;49.004;12.120;2023-05-16T00:22:22;20.17;;;14.77;;
60726;SDS011;46577;49.004;12.120;2023-05-16T00:24:48;17.97;;;14.50;;
60726;SDS011;46577;49.004;12.120;2023-05-16T00:27:14;18.20;;;14.97;;
60726;SDS011;46577;49.004;12.120;2023-05-16T00:29:40;20.17;;;14.93;;
60726;SDS011;46577;49.004;12.120;2023-05-16T00:32:05;19.10;;;14.70;;
60726;SDS011;46577;49.004;12.120;2023-05-16T00:34:32;23.73;;;15.70;;
60726;SDS011;46577;49.004;12.120;2023-05-16T00:36:58;20.10;;;14.57;;
60726;SDS011;46577;49.004;12.120;2023-05-16T00:39:24;28.63;;;16.43;;
60726;SDS011;46577;49.004;12.120;2023-05-16T00:41:50;21.50;;;16.07;;
60726;SDS011;46577;49.004;12.120;2023-05-16T00:44:15;21.23;;;14.37;;
60726;SDS011;46577;49.004;12.120;2023-05-16T00:46:41;20.80;;;15.40;;
60726;SDS011;46577;49.004;12.120;2023-05-16T00:49:07;20.20;;;15.70;;
60726;SDS011;46577;49.004;12.120;2023-05-16T00:51:33;23.20;;;14.63;;
60726;SDS011;46577;49.004;12.120;2023-05-16T00:54:00;22.10;;;16.83;;
60726;SDS011;46577;49.004;12.120;2023-05-16T00:56:26;22.13;;;16.07;;
60726;SDS011;46577;49.004;12.120;2023-05-16T00:58:52;28.33;;;19.40;;
60726;SDS011;46577;49.004;12.120;2023-05-16T01:01:18;23.63;;;17.33;;
60726;SDS011;46577;49.004;12.120;2023-05-16T01:03:46;22.83;;;15.20;;
60726;SDS011;46577;49.004;12.120;2023-05-16T01:06:12;22.70;;;16.00;;
60726;SDS011;46577;49.004;12.120;2023-05-16T01:08:37;28.27;;;16.83;;
60726;SDS011;46577;49.004;12.120;2023-05-16T01:16:29;26.37;;;17.23;;
60726;SDS011;46577;49.004;12.120;2023-05-16T01:19:01;29.67;;;18.00;;
60726;SDS011;46577;49.004;12.120;2023-05-16T01:21:47;24.77;;;17.17;;
60726;SDS011;46577;49.004;12.120;2023-05-16T01:24:39;25.47;;;17.87;;
60726;SDS011;46577;49.004;12.120;2023-05-16T01:27:10;25.43;;;17.63;;
60726;SDS011;46577;49.004;12.120;2023-05-16T01:29:38;28.40;;;17.50;;
60726;SDS011;46577;49.004;12.120;2023-05-16T01:32:03;26.83;;;17.73;;
60726;SDS011;46577;49.004;12.120;2023-05-16T01:34:29;27.93;;;18.40;;
60726;SDS011;46577;49.004;12.120;2023-05-16T01:39:44;27.47;;;19.43;;
60726;SDS011;46577;49.004;12.120;2023-05-16T01:42:17;31.93;;;20.83;;
60726;SDS011;46577;49.004;12.120;2023-05-16T01:44:46;34.83;;;20.60;;
60726;SDS011;46577;49.004;12.120;2023-05-16T01:47:31;29.80;;;19.90;;
60726;SDS011;46577;49.004;12.120;2023-05-16T01:52:33;35.90;;;21.53;;
60726;SDS011;46577;49.004;12.120;2023-05-16T01:55:05;41.53;;;20.30;;
60726;SDS011;46577;49.004;12.120;2023-05-16T01:57:35;36.93;;;19.50;;
60726;SDS011;46577;49.004;12.120;2023-05-16T02:00:03;30.40;;;20.23;;
60726;SDS011;46577;49.004;12.120;2023-05-16T02:02:29;33.53;;;19.93;;
60726;SDS011;46577;49.004;12.120;2023-05-16T02:04:55;28.00;;;19.13;;
60726;SDS011;46577;49.004;12.120;2023-05-16T02:07:21;28.80;;;19.47;;
60726;SDS011;46577;49.004;12.120;2023-05-16T02:09:47;29.70;;;19.70;;
60726;SDS011;46577;49.004;12.120;2023-05-16T02:12:12;23.87;;;18.10;;
60726;SDS011;46577;49.004;12.120;2023-05-16T02:14:38;26.97;;;18.60;;
60726;SDS011;46577;49.004;12.120;2023-05-16T02:17:04;29.10;;;19.03;;
60726;SDS011;46577;49.004;12.120;2023-05-16T02:19:30;26.57;;;18.40;;
60726;SDS011;46577;49.004;12.120;2023-05-16T02:21:55;27.80;;;18.60;;
60726;SDS011;46577;49.004;12.120;2023-05-16T02:24:21;27.13;;;19.87;;
60726;SDS011;46577;49.004;12.120;2023-05-16T02:26:46;24.87;;;18.60;;
60726;SDS011;46577;49.004;12.120;2023-05-16T02:29:12;28.23;;;19.23;;
60726;SDS011;46577;49.004;12.120;2023-05-16T02:31:39;30.93;;;19.73;;
60726;SDS011;46577;49.004;12.120;2023-05-16T02:34:06;29.17;;;18.87;;
60726;SDS011;46577;49.004;12.120;2023-05-16T02:36:32;25.43;;;17.80;;
60726;SDS011;46577;49.004;12.120;2023-05-16T02:38:59;26.33;;;18.00;;
60726;SDS011;46577;49.004;12.120;2023-05-16T02:41:26;25.37;;;18.70;;
60726;SDS011;46577;49.004;12.120;2023-05-16T02:43:51;24.43;;;17.60;;
60726;SDS011;46577;49.004;12.120;2023-05-16T02:48:49;26.40;;;18.03;;
60726;SDS011;46577;49.004;12.120;2023-05-16T02:51:15;29.30;;;20.33;;
60726;SDS011;46577;49.004;12.120;2023-05-16T02:53:41;27.93;;;17.87;;
60726;SDS011;46577;49.004;12.120;2023-05-16T02:56:06;32.57;;;20.10;;
60726;SDS011;46577;49.004;12.120;2023-05-16T02:58:34;28.40;;;20.00;;
60726;SDS011;46577;49.004;12.120;2023-05-16T03:00:59;32.40;;;20.73;;
60726;SDS011;46577;49.004;12.120;2023-05-16T03:03:25;30.13;;;20.00;;
60726;SDS011;46577;49.004;12.120;2023-05-16T03:05:51;31.63;;;21.80;;
60726;SDS011;46577;49.004;12.120;2023-05-16T03:08:17;37.27;;;22.17;;
60726;SDS011;46577;49.004;12.120;2023-05-16T03:10:42;32.23;;;20.43;;
60726;SDS011;46577;49.004;12.120;2023-05-16T03:13:08;30.67;;;21.90;;
60726;SDS011;46577;49.004;12.120;2023-05-16T03:15:33;31.23;;;21.13;;
60726;SDS011;46577;49.004;12.120;2023-05-16T03:17:59;40.87;;;23.90;;
60726;SDS011;46577;49.004;12.120;2023-05-16T03:20:25;34.10;;;21.40;;
60726;SDS011;46577;49.004;12.120;2023-05-16T03:22:50;34.47;;;22.87;;
60726;SDS011;46577;49.004;12.120;2023-05-16T03:25:16;34.13;;;21.80;;
60726;SDS011;46577;49.004;12.120;2023-05-16T03:27:42;37.63;;;21.47;;
60726;SDS011;46577;49.004;12.120;2023-05-16T03:30:07;33.13;;;20.30;;
60726;SDS011;46577;49.004;12.120;2023-05-16T03:32:33;35.37;;;20.20;;
60726;SDS011;46577;49.004;12.120;2023-05-16T03:34:59;32.80;;;21.33;;
60726;SDS011;46577;49.004;12.120;2023-05-16T03:37:25;28.47;;;19.17;;
60726;SDS011;46577;49.004;12.120;2023-05-16T03:39:51;29.23;;;19.20;;
60726;SDS011;46577;49.004;12.120;2023-05-16T03:42:16;29.30;;;18.50;;
60726;SDS011;46577;49.004;12.120;2023-05-16T03:44:42;22.83;;;17.40;;
60726;SDS011;46577;49.004;12.120;2023-05-16T03:47:08;21.67;;;15.60;;
60726;SDS011;46577;49.004;12.120;2023-05-16T03:49:34;19.53;;;14.90;;
60726;SDS011;46577;49.004;12.120;2023-05-16T03:52:01;15.93;;;13.50;;
60726;SDS011;46577;49.004;12.120;2023-05-16T03:54:27;18.70;;;15.10;;
60726;SDS011;46577;49.004;12.120;2023-05-16T03:56:53;20.90;;;14.17;;
60726;SDS011;46577;49.004;12.120;2023-05-16T03:59:19;20.53;;;13.60;;
60726;SDS011;46577;49.004;12.120;2023-05-16T04:01:45;19.33;;;13.73;;
60726;SDS011;46577;49.004;12.120;2023-05-16T04:04:11;20.90;;;13.43;;
60726;SDS011;46577;49.004;12.120;2023-05-16T04:06:38;16.07;;;12.83;;
60726;SDS011;46577;49.004;12.120;2023-05-16T04:09:03;15.80;;;12.80;;
60726;SDS011;46577;49.004;12.120;2023-05-16T04:11:30;18.20;;;13.17;;
60726;SDS011;46577;49.004;12.120;2023-05-16T04:13:56;17.57;;;12.77;;
60726;SDS011;46577;49.004;12.120;2023-05-16T04:16:22;16.00;;;12.20;;
60726;SDS011;46577;49.004;12.120;2023-05-16T04:18:48;20.93;;;13.47;;
60726;SDS011;46577;49.004;12.120;2023-05-16T04:21:13;21.40;;;13.20;;
60726;SDS011;46577;49.004;12.120;2023-05-16T04:23:42;18.60;;;12.60;;
60726;SDS011;46577;49.004;12.120;2023-05-16T04:26:08;13.00;;;11.07;;
60726;SDS011;46577;49.004;12.120;2023-05-16T04:28:33;23.50;;;13.60;;
60726;SDS011;46577;49.004;12.120;2023-05-16T04:31:00;16.33;;;11.70;;
60726;SDS011;46577;49.004;12.120;2023-05-16T04:33:25;17.03;;;10.80;;
60726;SDS011;46577;49.004;12.120;2023-05-16T04:35:51;17.83;;;11.47;;
60726;SDS011;46577;49.004;12.120;2023-05-16T04:38:18;15.03;;;11.00;;
60726;SDS011;46577;49.004;12.120;2023-05-16T04:40:44;14.03;;;10.80;;
60726;SDS011;46577;49.004;12.120;2023-05-16T04:43:10;12.60;;;10.03;;
60726;SDS011;46577;49.004;12.120;2023-05-16T04:45:36;12.50;;;9.97;;
60726;SDS011;46577;49.004;12.120;2023-05-16T04:48:01;15.00;;;11.50;;
60726;SDS011;46577;49.004;12.120;2023-05-16T04:50:27;15.60;;;10.50;;
60726;SDS011;46577;49.004;12.120;2023-05-16T04:52:53;17.10;;;12.40;;
60726;SDS011;46577;49.004;12.120;2023-05-16T04:55:19;16.97;;;12.10;;
60726;SDS011;46577;49.004;12.120;2023-05-16T04:57:44;14.17;;;11.57;;
60726;SDS011;46577;49.004;12.120;2023-05-16T05:00:11;18.33;;;11.57;;
60726;SDS011;46577;49.004;12.120;2023-05-16T05:02:37;13.73;;;9.73;;
60726;SDS011;46577;49.004;12.120;2023-05-16T05:05:03;13.47;;;10.33;;
60726;SDS011;46577;49.004;12.120;2023-05-16T05:07:30;11.70;;;9.60;;
60726;SDS011;46577;49.004;12.120;2023-05-16T05:09:56;11.90;;;9.30;;
60726;SDS011;46577;49.004;12.120;2023-05-16T05:12:22;12.30;;;9.20;;
60726;SDS011;46577;49.004;12.120;2023-05-16T05:14:49;8.77;;;7.03;;
60726;SDS011;46577;49.004;12.120;2023-05-16T05:17:15;15.33;;;8.20;;
60726;SDS011;46577;49.004;12.120;2023-05-16T05:19:41;10.60;;;7.47;;
60726;SDS011;46577;49.004;12.120;2023-05-16T05:22:07;12.63;;;7.23;;
60726;SDS011;46577;49.004;12.120;2023-05-16T05:24:32;9.83;;;7.37;;
60726;SDS011;46577;49.004;12.120;2023-05-16T05:26:58;18.73;;;7.63;;
60726;SDS011;46577;49.004;12.120;2023-05-16T05:29:24;10.87;;;6.63;;
60726;SDS011;46577;49.004;12.120;2023-05-16T05:31:49;12.80;;;7.30;;
60726;SDS011;46577;49.004;12.120;2023-05-16T05:34:15;8.13;;;7.23;;
60726;SDS011;46577;49.004;12.120;2023-05-16T05:36:40;9.77;;;7.03;;
60726;SDS011;46577;49.004;12.120;2023-05-16T05:39:06;8.43;;;6.60;;
60726;SDS011;46577;49.004;12.120;2023-05-16T05:41:32;8.07;;;7.00;;
60726;SDS011;46577;49.004;12.120;2023-05-16T05:43:58;9.37;;;7.17;;
60726;SDS011;46577;49.004;12.120;2023-05-16T05:46:24;7.37;;;6.60;;
60726;SDS011;46577;49.004;12.120;2023-05-16T05:48:50;8.17;;;7.23;;
60726;SDS011;46577;49.004;12.120;2023-05-16T05:51:16;7.90;;;7.07;;
60726;SDS011;46577;49.004;12.120;2023-05-16T05:53:41;13.23;;;7.03;;
60726;SDS011;46577;49.004;12.120;2023-05-16T05:56:07;8.07;;;7.10;;
60726;SDS011;46577;49.004;12.120;2023-05-16T05:58:33;10.20;;;8.10;;
60726;SDS011;46577;49.004;12.120;2023-05-16T06:00:59;8.10;;;6.70;;
60726;SDS011;46577;49.004;12.120;2023-05-16T06:03:24;8.60;;;7.03;;
60726;SDS011;46577;49.004;12.120;2023-05-16T06:05:50;10.90;;;7.70;;
60726;SDS011;46577;49.004;12.120;2023-05-16T06:08:16;7.80;;;7.00;;
60726;SDS011;46577;49.004;12.120;2023-05-16T06:10:41;17.17;;;7.70;;
60726;SDS011;46577;49.004;12.120;2023-05-16T06:13:07;7.03;;;6.30;;
60726;SDS011;46577;49.004;12.120;2023-05-16T06:15:33;7.10;;;6.40;;
60726;SDS011;46577;49.004;12.120;2023-05-16T06:17:58;8.57;;;7.53;;
60726;SDS011;46577;49.004;12.120;2023-05-16T06:20:24;13.30;;;6.90;;
60726;SDS011;46577;49.004;12.120;2023-05-16T06:22:50;7.40;;;6.70;;
60726;SDS011;46577;49.004;12.120;2023-05-16T06:25:16;9.97;;;7.07;;
60726;SDS011;46577;49.004;12.120;2023-05-16T06:27:41;10.37;;;6.77;;
60726;SDS011;46577;49.004;12.120;2023-05-16T06:30:07;10.50;;;7.17;;
60726;SDS011;46577;49.004;12.120;2023-05-16T06:32:33;6.33;;;5.80;;
60726;SDS011;46577;49.004;12.120;2023-05-16T06:34:59;7.30;;;5.77;;
60726;SDS011;46577;49.004;12.120;2023-05-16T06:37:24;6.60;;;5.80;;
60726;SDS011;46577;49.004;12.120;2023-05-16T06:39:50;7.07;;;4.80;;
60726;SDS011;46577;49.004;12.120;2023-05-16T06:42:16;9.57;;;5.37;;
60726;SDS011;46577;49.004;12.120;2023-05-16T06:44:41;6.10;;;5.20;;
60726;SDS011;46577;49.004;12.120;2023-05-16T06:47:07;8.80;;;5.97;;
60726;SDS011;46577;49.004;12.120;2023-05-16T06:49:33;7.63;;;6.07;;
60726;SDS011;46577;49.004;12.120;2023-05-16T06:51:59;6.63;;;6.03;;
60726;SDS011;46577;49.004;12.120;2023-05-16T06:54:25;6.67;;;6.03;;
60726;SDS011;46577;49.004;12.120;2023-05-16T06:56:50;9.17;;;6.70;;
60726;SDS011;46577;49.004;12.120;2023-05-16T06:59:16;13.53;;;6.40;;
60726;SDS011;46577;49.004;12.120;2023-05-16T07:01:41;6.93;;;6.33;;
60726;SDS011;46577;49.004;12.120;2023-05-16T07:04:07;7.77;;;6.13;;
60726;SDS011;46577;49.004;12.120;2023-05-16T07:06:33;10.20;;;7.10;;
60726;SDS011;46577;49.004;12.120;2023-05-16T07:08:58;14.23;;;8.07;;
60726;SDS011;46577;49.004;12.120;2023-05-16T07:11:24;13.03;;;6.67;;
60726;SDS011;46577;49.004;12.120;2023-05-16T07:13:50;6.10;;;5.50;;
60726;SDS011;46577;49.004;12.120;2023-05-16T07:16:15;6.70;;;5.87;;
60726;SDS011;46577;49.004;12.120;2023-05-16T07:18:41;8.97;;;5.40;;
60726;SDS011;46577;49.004;12.120;2023-05-16T07:21:07;9.90;;;5.50;;
60726;SDS011;46577;49.004;12.120;2023-05-16T07:23:33;6.70;;;4.67;;
60726;SDS011;46577;49.004;12.120;2023-05-16T07:25:58;3.93;;;3.63;;
60726;SDS011;46577;49.004;12.120;2023-05-16T07:28:24;4.83;;;4.23;;
60726;SDS011;46577;49.004;12.120;2023-05-16T07:30:49;6.43;;;4.20;;
60726;SDS011;46577;49.004;12.120;2023-05-16T07:33:15;6.87;;;4.40;;
60726;SDS011;46577;49.004;12.120;2023-05-16T07:35:41;4.07;;;3.77;;
60726;SDS011;46577;49.004;12.120;2023-05-16T07:38:07;3.60;;;3.30;;
60726;SDS011;46577;49.004;12.120;2023-05-16T07:40:33;4.45;;;3.40;;
60726;SDS011;46577;49.004;12.120;2023-05-16T07:42:58;3.70;;;3.45;;
60726;SDS011;46577;49.004;12.120;2023-05-16T07:45:24;4.05;;;3.75;;
60726;SDS011;46577;49.004;12.120;2023-05-16T07:47:50;3.90;;;3.60;;
60726;SDS011;46577;49.004;12.120;2023-05-16T07:50:15;4.25;;;3.70;;
60726;SDS011;46577;49.004;12.120;2023-05-16T07:52:41;4.38;;;3.95;;
60726;SDS011;46577;49.004;12.120;2023-05-16T07:55:06;7.63;;;3.35;;
60726;SDS011;46577;49.004;12.120;2023-05-16T07:57:32;4.70;;;4.30;;
60726;SDS011;46577;49.004;12.120;2023-05-16T07:59:58;4.80;;;4.40;;
60726;SDS011;46577;49.004;12.120;2023-05-16T08:02:24;6.77;;;5.00;;
60726;SDS011;46577;49.004;12.120;2023-05-16T08:04:54;7.90;;;4.50;;
60726;SDS011;46577;49.004;12.120;2023-05-16T08:07:21;6.07;;;4.73;;
60726;SDS011;46577;49.004;12.120;2023-05-16T08:09:46;5.13;;;4.63;;
60726;SDS011;46577;49.004;12.120;2023-05-16T08:12:12;5.70;;;4.27;;
60726;SDS011;46577;49.004;12.120;2023-05-16T08:14:37;7.07;;;4.50;;
60726;SDS011;46577;49.004;12.120;2023-05-16T08:17:03;5.20;;;4.63;;
60726;SDS011;46577;49.004;12.120;2023-05-16T08:19:29;5.30;;;4.83;;
60726;SDS011;46577;49.004;12.120;2023-05-16T08:21:56;9.53;;;5.70;;
60726;SDS011;46577;49.004;12.120;2023-05-16T08:24:22;7.17;;;6.43;;
60726;SDS011;46577;49.004;12.120;2023-05-16T08:26:48;12.30;;;5.80;;
60726;SDS011;46577;49.004;12.120;2023-05-16T08:29:14;7.50;;;6.60;;
60726;SDS011;46577;49.004;12.120;2023-05-16T08:31:40;9.10;;;7.30;;
60726;SDS011;46577;49.004;12.120;2023-05-16T08:34:06;9.90;;;7.50;;
60726;SDS011;46577;49.004;12.120;2023-05-16T08:36:33;17.90;;;9.00;;
60726;SDS011;46577;49.004;12.120;2023-05-16T08:38:59;7.87;;;6.03;;
60726;SDS011;46577;49.004;12.120;2023-05-16T08:41:25;7.17;;;6.33;;
60726;SDS011;46577;49.004;12.120;2023-05-16T08:43:51;11.23;;;6.10;;
60726;SDS011;46577;49.004;12.120;2023-05-16T08:46:20;21.97;;;8.80;;
60726;SDS011;46577;49.004;12.120;2023-05-16T08:48:46;27.97;;;11.00;;
60726;SDS011;46577;49.004;12.120;2023-05-16T08:51:20;8.03;;;6.20;;
60726;SDS011;46577;49.004;12.120;2023-05-16T08:53:49;7.07;;;5.10;;
60726;SDS011;46577;49.004;12.120;2023-05-16T08:56:21;5.67;;;5.10;;
60726;SDS011;46577;49.004;12.120;2023-05-16T08:58:48;5.18;;;4.68;;
60726;SDS011;46577;49.004;12.120;2023-05-16T09:01:15;5.53;;;4.80;;
60726;SDS011;46577;49.004;12.120;2023-05-16T09:03:42;4.82;;;4.35;;
60726;SDS011;46577;49.004;12.120;2023-05-16T09:06:08;4.38;;;4.07;;
60726;SDS011;46577;49.004;12.120;2023-05-16T09:08:34;3.80;;;3.50;;
60726;SDS011;46577;49.004;12.120;2023-05-16T09:11:00;4.60;;;3.72;;
60726;SDS011;46577;49.004;12.120;2023-05-16T09:13:27;7.10;;;3.80;;
60726;SDS011;46577;49.004;12.120;2023-05-16T09:16:12;5.10;;;3.87;;
60726;SDS011;46577;49.004;12.120;2023-05-16T09:18:39;6.10;;;5.50;;
60726;SDS011;46577;49.004;12.120;2023-05-16T09:21:07;7.83;;;5.77;;
60726;SDS011;46577;49.004;12.120;2023-05-16T09:23:35;5.67;;;5.07;;
60726;SDS011;46577;49.004;12.120;2023-05-16T09:26:01;6.23;;;5.40;;
60726;SDS011;46577;49.004;12.120;2023-05-16T09:28:28;6.80;;;5.50;;
60726;SDS011;46577;49.004;12.120;2023-05-16T09:30:54;12.20;;;7.60;;
60726;SDS011;46577;49.004;12.120;2023-05-16T09:33:23;7.27;;;6.27;;
60726;SDS011;46577;49.004;12.120;2023-05-16T09:35:57;9.83;;;7.60;;
60726;SDS011;46577;49.004;12.120;2023-05-16T09:38:24;9.40;;;6.80;;
60726;SDS011;46577;49.004;12.120;2023-05-16T09:40:51;7.37;;;6.67;;
60726;SDS011;46577;49.004;12.120;2023-05-16T09:43:21;8.47;;;6.47;;
60726;SDS011;46577;49.004;12.120;2023-05-16T09:45:50;7.10;;;6.00;;
60726;SDS011;46577;49.004;12.120;2023-05-16T09:48:16;12.63;;;7.03;;
60726;SDS011;46577;49.004;12.120;2023-05-16T09:50:49;20.57;;;7.97;;
60726;SDS011;46577;49.004;12.120;2023-05-16T09:53:17;12.67;;;7.53;;
60726;SDS011;46577;49.004;12.120;2023-05-16T09:55:58;12.20;;;7.10;;
60726;SDS011;46577;49.004;12.120;2023-05-16T09:58:44;9.43;;;7.23;;
60726;SDS011;46577;49.004;12.120;2023-05-16T10:01:11;13.67;;;7.80;;
60726;SDS011;46577;49.004;12.120;2023-05-16T10:03:38;8.50;;;6.60;;
60726;SDS011;46577;49.004;12.120;2023-05-16T10:06:05;11.73;;;8.23;;
60726;SDS011;46577;49.004;12.120;2023-05-16T10:08:32;8.47;;;7.57;;
60726;SDS011;46577;49.004;12.120;2023-05-16T10:11:03;10.80;;;8.63;;
60726;SDS011;46577;49.004;12.120;2023-05-16T10:13:30;9.60;;;8.33;;
60726;SDS011;46577;49.004;12.120;2023-05-16T10:15:58;11.97;;;8.93;;
60726;SDS011;46577;49.004;12.120;2023-05-16T10:18:28;12.17;;;9.00;;
60726;SDS011;46577;49.004;12.120;2023-05-16T10:20:56;11.70;;;7.73;;
60726;SDS011;46577;49.004;12.120;2023-05-16T10:23:24;11.23;;;8.03;;
60726;SDS011;46577;49.004;12.120;2023-05-16T10:25:51;12.63;;;7.63;;
60726;SDS011;46577;49.004;12.120;2023-05-16T10:28:19;12.07;;;8.43;;
60726;SDS011;46577;49.004;12.120;2023-05-16T10:30:46;12.43;;;8.33;;
60726;SDS011;46577;49.004;12.120;2023-05-16T10:33:12;19.07;;;9.60;;
60726;SDS011;46577;49.004;12.120;2023-05-16T10:35:39;14.57;;;9.60;;
60726;SDS011;46577;49.004;12.120;2023-05-16T10:38:06;16.40;;;9.77;;
60726;SDS011;46577;49.004;12.120;2023-05-16T10:40:34;15.73;;;11.30;;
60726;SDS011;46577;49.004;12.120;2023-05-16T10:43:02;17.90;;;12.43;;
60726;SDS011;46577;49.004;12.120;2023-05-16T10:45:30;14.10;;;11.10;;
60726;SDS011;46577;49.004;12.120;2023-05-16T10:47:57;16.60;;;12.67;;
60726;SDS011;46577;49.004;12.120;2023-05-16T10:50:40;16.37;;;12.40;;
60726;SDS011;46577;49.004;12.120;2023-05-16T10:53:13;17.70;;;13.17;;
60726;SDS011;46577;49.004;12.120;2023-05-16T10:55:39;18.87;;;13.70;;
60726;SDS011;46577;49.004;12.120;2023-05-16T10:58:08;32.50;;;14.30;;
60726;SDS011;46577;49.004;12.120;2023-05-16T11:00:33;13.47;;;11.80;;
60726;SDS011;46577;49.004;12.120;2023-05-16T11:03:03;19.43;;;10.60;;
60726;SDS011;46577;49.004;12.120;2023-05-16T11:05:30;16.53;;;9.00;;
60726;SDS011;46577;49.004;12.120;2023-05-16T11:08:02;15.53;;;10.77;;
60726;SDS011;46577;49.004;12.120;2023-05-16T11:10:30;13.13;;;10.70;;
60726;SDS011;46577;49.004;12.120;2023-05-16T11:13:01;13.87;;;9.80;;
60726;SDS011;46577;49.004;12.120;2023-05-16T11:15:31;15.10;;;9.97;;
60726;SDS011;46577;49.004;12.120;2023-05-16T11:18:05;14.53;;;8.90;;
60726;SDS011;46577;49.004;12.120;2023-05-16T11:20:38;11.53;;;8.97;;
60726;SDS011;46577;49.004;12.120;2023-05-16T11:23:23;11.70;;;9.50;;
60726;SDS011;46577;49.004;12.120;2023-05-16T11:25:51;8.57;;;7.67;;
60726;SDS011;46577;49.004;12.120;2023-05-16T11:28:18;15.03;;;7.13;;
60726;SDS011;46577;49.004;12.120;2023-05-16T11:30:45;10.13;;;8.23;;
60726;SDS011;46577;49.004;12.120;2023-05-16T11:33:13;13.80;;;9.10;;
60726;SDS011;46577;49.004;12.120;2023-05-16T11:35:40;9.60;;;7.70;;
60726;SDS011;46577;49.004;12.120;2023-05-16T11:38:10;9.50;;;7.63;;
60726;SDS011;46577;49.004;12.120;2023-05-16T11:40:40;10.80;;;8.83;;
60726;SDS011;46577;49.004;12.120;2023-05-16T11:43:07;11.37;;;9.30;;
60726;SDS011;46577;49.004;12.120;2023-05-16T11:45:32;12.00;;;8.30;;
60726;SDS011;46577;49.004;12.120;2023-05-16T11:48:00;12.13;;;7.77;;
60726;SDS011;46577;49.004;12.120;2023-05-16T11:50:30;14.23;;;9.20;;
60726;SDS011;46577;49.004;12.120;2023-05-16T11:53:00;10.70;;;8.77;;
60726;SDS011;46577;49.004;12.120;2023-05-16T11:55:27;8.87;;;7.67;;
60726;SDS011;46577;49.004;12.120;2023-05-16T11:57:57;11.90;;;8.63;;
60726;SDS011;46577;49.004;12.120;2023-05-16T12:00:23;10.93;;;8.80;;
60726;SDS011;46577;49.004;12.120;2023-05-16T12:02:50;15.03;;;8.10;;
60726;SDS011;46577;49.004;12.120;2023-05-16T12:05:17;10.60;;;7.63;;
60726;SDS011;46577;49.004;12.120;2023-05-16T12:07:45;9.10;;;7.60;;
60726;SDS011;46577;49.004;12.120;2023-05-16T12:10:14;12.63;;;7.70;;
60726;SDS011;46577;49.004;12.120;2023-05-16T12:12:41;14.53;;;7.90;;
60726;SDS011;46577;49.004;12.120;2023-05-16T12:15:11;13.43;;;8.37;;
60726;SDS011;46577;49.004;12.120;2023-05-16T12:17:38;8.00;;;6.10;;
60726;SDS011;46577;49.004;12.120;2023-05-16T12:20:05;11.40;;;6.50;;
60726;SDS011;46577;49.004;12.120;2023-05-16T12:22:39;10.70;;;6.10;;
60726;SDS011;46577;49.004;12.120;2023-05-16T12:25:21;11.23;;;8.00;;
60726;SDS011;46577;49.004;12.120;2023-05-16T12:27:52;9.50;;;6.10;;
60726;SDS011;46577;49.004;12.120;2023-05-16T12:30:20;10.00;;;6.17;;
60726;SDS011;46577;49.004;12.120;2023-05-16T12:32:57;7.60;;;6.50;;
60726;SDS011;46577;49.004;12.120;2023-05-16T12:35:31;7.80;;;7.00;;
60726;SDS011;46577;49.004;12.120;2023-05-16T12:37:57;9.60;;;6.43;;
60726;SDS011;46577;49.004;12.120;2023-05-16T12:40:27;7.77;;;6.13;;
60726;SDS011;46577;49.004;12.120;2023-05-16T12:42:53;10.20;;;7.40;;
60726;SDS011;46577;49.004;12.120;2023-05-16T12:45:20;7.10;;;6.43;;
60726;SDS011;46577;49.004;12.120;2023-05-16T12:47:47;11.40;;;7.43;;
60726;SDS011;46577;49.004;12.120;2023-05-16T12:50:13;9.60;;;7.33;;
60726;SDS011;46577;49.004;12.120;2023-05-16T12:52:50;15.47;;;8.07;;
60726;SDS011;46577;49.004;12.120;2023-05-16T12:55:18;9.33;;;6.30;;
60726;SDS011;46577;49.004;12.120;2023-05-16T12:57:45;10.33;;;6.27;;
60726;SDS011;46577;49.004;12.120;2023-05-16T13:00:14;9.50;;;6.70;;
60726;SDS011;46577;49.004;12.120;2023-05-16T13:02:44;8.07;;;7.07;;
60726;SDS011;46577;49.004;12.120;2023-05-16T13:05:10;12.10;;;7.60;;
60726;SDS011;46577;49.004;12.120;2023-05-16T13:07:36;11.70;;;7.50;;
60726;SDS011;46577;49.004;12.120;2023-05-16T13:10:04;9.57;;;7.30;;
60726;SDS011;46577;49.004;12.120;2023-05-16T13:12:34;10.13;;;7.93;;
60726;SDS011;46577;49.004;12.120;2023-05-16T13:15:04;11.73;;;7.87;;
60726;SDS011;46577;49.004;12.120;2023-05-16T13:17:34;14.57;;;8.00;;
60726;SDS011;46577;49.004;12.120;2023-05-16T13:20:00;9.50;;;7.23;;
60726;SDS011;46577;49.004;12.120;2023-05-16T13:22:29;12.00;;;8.40;;
60726;SDS011;46577;49.004;12.120;2023-05-16T13:24:55;9.17;;;7.53;;
60726;SDS011;46577;49.004;12.120;2023-05-16T13:27:20;9.03;;;7.80;;
60726;SDS011;46577;49.004;12.120;2023-05-16T13:29:46;10.23;;;8.40;;
60726;SDS011;46577;49.004;12.120;2023-05-16T13:32:11;11.60;;;8.00;;
60726;SDS011;46577;49.004;12.120;2023-05-16T13:34:37;11.90;;;7.60;;
60726;SDS011;46577;49.004;12.120;2023-05-16T13:37:02;11.33;;;7.80;;
60726;SDS011;46577;49.004;12.120;2023-05-16T13:41:58;9.90;;;8.07;;
60726;SDS011;46577;49.004;12.120;2023-05-16T13:44:24;11.30;;;8.83;;
60726;SDS011;46577;49.004;12.120;2023-05-16T13:46:51;11.67;;;9.20;;
60726;SDS011;46577;49.004;12.120;2023-05-16T13:49:16;12.53;;;8.33;;
60726;SDS011;46577;49.004;12.120;2023-05-16T13:51:42;11.63;;;8.33;;
60726;SDS011;46577;49.004;12.120;2023-05-16T13:54:08;12.00;;;9.67;;
60726;SDS011;46577;49.004;12.120;2023-05-16T13:56:33;12.90;;;8.37;;
60726;SDS011;46577;49.004;12.120;2023-05-16T13:58:59;10.43;;;9.17;;
60726;SDS011;46577;49.004;12.120;2023-05-16T14:01:24;11.30;;;9.53;;
60726;SDS011;46577;49.004;12.120;2023-05-16T14:03:50;10.53;;;7.60;;
60726;SDS011;46577;49.004;12.120;2023-05-16T14:06:16;10.00;;;7.97;;
60726;SDS011;46577;49.004;12.120;2023-05-16T14:08:41;14.80;;;8.93;;
60726;SDS011;46577;49.004;12.120;2023-05-16T14:11:07;9.33;;;8.37;;
60726;SDS011;46577;49.004;12.120;2023-05-16T14:13:32;8.50;;;7.60;;
60726;SDS011;46577;49.004;12.120;2023-05-16T14:15:58;13.43;;;8.50;;
60726;SDS011;46577;49.004;12.120;2023-05-16T14:18:24;9.60;;;8.20;;
60726;SDS011;46577;49.004;12.120;2023-05-16T14:20:49;8.90;;;8.00;;
60726;SDS011;46577;49.004;12.120;2023-05-16T14:23:16;9.33;;;8.40;;
60726;SDS011;46577;49.004;12.120;2023-05-16T14:25:41;9.73;;;8.73;;
60726;SDS011;46577;49.004;12.120;2023-05-16T14:28:07;10.50;;;8.80;;
60726;SDS011;46577;49.004;12.120;2023-05-16T14:30:32;10.63;;;9.10;;
60726;SDS011;46577;49.004;12.120;2023-05-16T14:32:58;12.23;;;10.13;;
60726;SDS011;46577;49.004;12.120;2023-05-16T14:35:25;13.20;;;9.83;;